Terminal Aerodrome Forecast
Issued by NWS

Home | Current Version | Previous Version | Text Only | Print | Product List | Glossary On
Versions: 1 2 3 4 5 6 7 8 9 10 11 12 13 14 15 16 17 18 19 20 21 22
736
FTUS41 KPBZ 110754 AAA
TAFHLG
TAF AMD
KHLG 110754Z 1108/1206 17003KT 2SM -SN OVC025
      TEMPO 1108/1112 1SM -SN OVC015
     FM111200 13006KT 5SM -SN OVC025
     FM111600 15006KT P6SM OVC050
     FM120100 14007KT 5SM -RASN OVC035=

USA.gov is the U.S. government's official web portal to all federal, state and local government web resources and services.